Time;durP1;ratioP1;P1;durP2;ratioP2;P2;SDS_P1;SDS_P2;PMS_P1;PMS_P2;Temp;Humidity;BMP_temperature;BMP_pressure;BME280_temperature;BME280_humidity;BME280_pressure;Samples;Min_cycle;Max_cycle;Signal;HPM_P1;HPM_P2
2022/11/13 00:00:10;;;;;;;27.57;16.80;;;;;;;3.96;100.00;97389.13;5026048;28;102450;-67
2022/11/13 00:03:02;;;;;;;29.00;15.80;;;;;;;3.89;100.00;97388.22;5028032;28;102183;-67
2022/11/13 00:05:59;;;;;;;36.53;16.70;;;;;;;3.87;100.00;97382.34;5029739;28;101833;-67
2022/11/13 00:08:45;;;;;;;39.03;18.23;;;;;;;3.92;100.00;97377.31;5009878;28;102082;-67
2022/11/13 00:11:31;;;;;;;27.63;17.40;;;;;;;3.93;100.00;97371.09;5023753;27;102253;-67
2022/11/13 00:14:18;;;;;;;31.83;17.83;;;;;;;4.04;100.00;97370.59;5029146;28;101647;-67
2022/11/13 00:17:03;;;;;;;37.57;18.10;;;;;;;3.99;100.00;97359.81;5032102;28;102084;-67
2022/11/13 00:19:50;;;;;;;41.23;18.53;;;;;;;3.98;100.00;97358.19;5029398;28;102198;-67
2022/11/13 00:23:26;;;;;;;60.17;18.67;;;;;;;3.99;100.00;97357.19;5009355;28;101914;-67
2022/11/13 00:26:13;;;;;;;49.40;18.83;;;;;;;3.80;100.00;97353.31;5018118;28;102372;-67
2022/11/13 00:29:00;;;;;;;74.20;18.67;;;;;;;3.75;100.00;97355.69;5029494;28;101758;-67
2022/11/13 00:32:05;;;;;;;46.83;17.77;;;;;;;3.77;100.00;97358.16;5029024;28;102223;-67
2022/11/13 00:35:00;;;;;;;34.63;17.77;;;;;;;3.85;100.00;97352.75;5028810;28;102198;-67
2022/11/13 00:37:46;;;;;;;32.00;16.73;;;;;;;3.84;100.00;97351.13;5028753;28;101840;-67
2022/11/13 00:40:32;;;;;;;58.60;19.27;;;;;;;3.78;100.00;97344.00;5028869;28;102018;-67
2022/11/13 00:43:46;;;;;;;27.67;18.30;;;;;;;3.76;100.00;97346.78;5031469;28;101693;-67
2022/11/13 00:46:31;;;;;;;26.80;17.27;;;;;;;3.82;100.00;97347.88;5030727;28;101991;-67
2022/11/13 00:49:18;;;;;;;65.77;20.37;;;;;;;3.74;100.00;97346.19;5028625;28;102266;-67
2022/11/13 00:52:15;;;;;;;56.17;18.57;;;;;;;3.69;100.00;97337.19;5028725;28;101712;-67
2022/11/13 00:55:00;;;;;;;64.97;19.53;;;;;;;3.65;100.00;97341.22;5029052;28;101733;-67
2022/11/13 00:57:46;;;;;;;58.20;20.97;;;;;;;3.63;100.00;97341.38;5027888;28;102229;-67
2022/11/13 01:00:31;;;;;;;26.97;18.07;;;;;;;3.80;100.00;97339.34;5028187;28;101700;-67
2022/11/13 01:03:18;;;;;;;51.10;20.67;;;;;;;3.80;100.00;97337.53;5028769;28;102192;-67
2022/11/13 01:06:16;;;;;;;44.07;19.33;;;;;;;3.75;100.00;97341.72;5011856;28;102190;-67
2022/11/13 01:09:01;;;;;;;36.90;19.33;;;;;;;3.82;100.00;97340.00;5008676;28;102082;-67
2022/11/13 01:12:01;;;;;;;27.87;19.80;;;;;;;3.92;100.00;97343.13;5024023;28;103053;-67
2022/11/13 01:14:47;;;;;;;40.27;19.77;;;;;;;3.90;100.00;97343.31;5027627;28;101935;-67
2022/11/13 01:17:32;;;;;;;31.57;19.00;;;;;;;3.80;100.00;97339.34;5028311;28;102051;-67
2022/11/13 01:20:18;;;;;;;55.83;20.97;;;;;;;3.83;100.00;97339.00;5027907;28;102218;-67
2022/11/13 01:23:06;;;;;;;22.80;18.67;;;;;;;3.93;100.00;97329.00;5028609;28;101725;-67
2022/11/13 01:25:51;;;;;;;33.63;19.30;;;;;;;4.06;100.00;97334.38;5027915;28;102097;-67
2022/11/13 01:28:37;;;;;;;42.40;19.53;;;;;;;3.90;100.00;97324.09;5027637;28;102306;-67
2022/11/13 01:31:25;;;;;;;23.00;18.03;;;;;;;3.93;100.00;97319.25;5031590;28;101715;-67
2022/11/13 01:34:10;;;;;;;34.50;18.90;;;;;;;3.94;100.00;97318.25;5027683;28;102226;-67
2022/11/13 01:37:03;;;;;;;64.27;20.17;;;;;;;3.87;100.00;97316.56;5027948;28;101928;-67
2022/11/13 01:39:50;;;;;;;21.80;17.57;;;;;;;3.88;100.00;97311.09;5027861;28;102056;-67
2022/11/13 01:42:44;;;;;;;81.13;19.33;;;;;;;3.76;100.00;97304.69;5027432;28;102348;-67
2022/11/13 01:46:06;;;;;;;33.53;18.57;;;;;;;3.71;100.00;97299.19;5029007;28;101990;-67
2022/11/13 01:48:55;;;;;;;22.40;17.80;;;;;;;3.69;100.00;97289.84;5027993;28;102081;-67
2022/11/13 01:52:13;;;;;;;36.47;18.07;;;;;;;3.70;100.00;97288.84;5027448;28;102215;-67
2022/11/13 01:55:02;;;;;;;35.33;17.97;;;;;;;3.76;100.00;97290.75;5027905;28;101787;-67
2022/11/13 01:57:47;;;;;;;66.10;20.37;;;;;;;3.76;100.00;97277.59;5030441;28;102081;-67
2022/11/13 02:00:33;;;;;;;67.43;19.47;;;;;;;3.74;100.00;97271.69;5027686;28;101746;-67
2022/11/13 02:04:08;;;;;;;48.57;18.10;;;;;;;3.75;100.00;97254.91;5027763;28;101641;-67
2022/11/13 02:07:05;;;;;;;38.40;18.80;;;;;;;3.79;100.00;97266.69;5026893;28;102269;-67
2022/11/13 02:09:54;;;;;;;27.63;18.10;;;;;;;3.79;100.00;97262.25;5027473;28;101804;-67
2022/11/13 02:12:46;;;;;;;32.93;18.87;;;;;;;3.87;100.00;97256.84;5027781;28;102181;-67
2022/11/13 02:15:34;;;;;;;21.13;17.47;;;;;;;3.93;100.00;97255.31;5012375;28;102280;-67
2022/11/13 02:18:22;;;;;;;72.50;19.70;;;;;;;3.78;100.00;97251.91;5027617;28;101706;-67
2022/11/13 02:21:22;;;;;;;31.60;18.07;;;;;;;3.77;100.00;97232.66;5020713;28;102057;-67
2022/11/13 02:24:20;;;;;;;25.17;17.60;;;;;;;3.78;100.00;97246.66;5030482;28;102194;-67
2022/11/13 02:27:16;;;;;;;30.17;17.10;;;;;;;3.65;100.00;97238.63;5027340;28;102120;-67
2022/11/13 02:30:15;;;;;;;33.93;17.93;;;;;;;3.71;100.00;97240.53;5026840;28;102207;-67
2022/11/13 02:33:24;;;;;;;30.33;17.13;;;;;;;3.60;100.00;97244.44;5027219;28;101926;-67
2022/11/13 02:36:13;;;;;;;36.30;17.27;;;;;;;3.63;100.00;97238.81;5007305;28;102063;-67
2022/11/13 02:39:03;;;;;;;64.87;17.77;;;;;;;3.56;100.00;97234.50;5011406;28;102198;-67
2022/11/13 02:41:53;;;;;;;46.50;18.67;;;;;;;3.52;100.00;97230.59;5027372;28;101669;-67
2022/11/13 02:44:39;;;;;;;34.87;18.27;;;;;;;3.46;100.00;97226.06;5026276;28;102073;-67
2022/11/13 02:47:24;;;;;;;21.73;16.33;;;;;;;3.58;100.00;97232.47;5026761;28;102199;-67
2022/11/13 02:50:11;;;;;;;42.63;17.87;;;;;;;3.46;100.00;97232.16;5030385;28;101727;-67
2022/11/13 02:53:00;;;;;;;71.77;18.47;;;;;;;3.43;100.00;97232.53;5026659;28;102266;-67
2022/11/13 02:55:46;;;;;;;67.10;18.90;;;;;;;3.30;100.00;97227.13;5007238;28;101651;-67
2022/11/13 02:58:33;;;;;;;56.93;18.23;;;;;;;3.21;100.00;97225.59;5008829;28;102043;-67
2022/11/13 03:01:19;;;;;;;53.67;17.67;;;;;;;3.27;100.00;97222.22;5026197;28;102269;-67
2022/11/13 03:04:04;;;;;;;66.63;17.90;;;;;;;3.24;100.00;97214.72;5026919;28;101675;-67
2022/11/13 03:10:31;;;;;;;97.23;19.77;;;;;;;3.13;100.00;97206.50;5026241;28;102129;-67
2022/11/13 03:13:23;;;;;;;70.90;19.17;;;;;;;3.11;100.00;97190.09;5029897;28;101814;-67
2022/11/13 03:16:12;;;;;;;50.97;19.07;;;;;;;3.20;100.00;97197.69;5026443;28;102242;-67
2022/11/13 03:18:57;;;;;;;54.10;20.53;;;;;;;3.17;100.00;97195.41;5026045;28;101924;-67
2022/11/13 03:21:51;;;;;;;44.73;19.37;;;;;;;3.20;100.00;97187.19;5026584;28;102073;-67
2022/11/13 03:24:36;;;;;;;39.77;18.97;;;;;;;3.20;100.00;97181.09;5026366;28;102173;-67
2022/11/13 03:27:22;;;;;;;63.87;20.80;;;;;;;3.14;100.00;97180.03;5026615;28;101728;-67
2022/11/13 03:30:09;;;;;;;42.23;18.97;;;;;;;3.13;100.00;97170.53;5026619;28;102013;-67
2022/11/13 03:33:02;;;;;;;74.77;20.33;;;;;;;3.15;100.00;97162.44;5025798;28;102199;-67
2022/11/13 03:35:51;;;;;;;93.20;22.43;;;;;;;3.22;100.00;97172.03;5026188;27;101992;-67
2022/11/13 03:38:36;;;;;;;67.93;21.13;;;;;;;3.23;100.00;97173.66;5032323;28;102059;-67
2022/11/13 03:41:22;;;;;;;22.27;19.00;;;;;;;3.33;100.00;97168.13;5030261;28;101971;-67
2022/11/13 03:44:08;;;;;;;25.83;19.43;;;;;;;3.44;100.00;97171.03;5029929;28;102044;-67
2022/11/13 03:46:53;;;;;;;24.17;19.77;;;;;;;3.47;100.00;97172.50;5031975;28;102189;-67
2022/11/13 03:49:40;;;;;;;27.43;19.13;;;;;;;3.52;100.00;97164.84;5029582;28;101793;-67
2022/11/13 03:52:26;;;;;;;22.27;19.37;;;;;;;3.47;100.00;97159.34;5029990;28;102134;-67
2022/11/13 03:55:11;;;;;;;45.97;19.40;;;;;;;3.43;100.00;97147.56;5029311;28;102550;-67
2022/11/13 03:57:56;;;;;;;26.10;20.10;;;;;;;3.45;100.00;97150.84;5029767;28;101642;-67
2022/11/13 04:00:43;;;;;;;38.50;19.47;;;;;;;3.47;100.00;97143.56;5029464;28;102025;-67
2022/11/13 04:03:59;;;;;;;21.17;18.37;;;;;;;3.62;100.00;97149.59;5032718;28;102256;-67
2022/11/13 04:07:33;;;;;;;29.13;18.20;;;;;;;3.55;100.00;97132.94;5029330;28;102222;-67
2022/11/13 04:10:20;;;;;;;23.60;18.17;;;;;;;3.65;100.00;97136.88;5029032;28;102244;-67
2022/11/13 04:13:25;;;;;;;21.73;18.73;;;;;;;3.76;100.00;97127.66;5029481;28;101700;-67
2022/11/13 04:16:11;;;;;;;26.80;18.43;;;;;;;3.66;100.00;97121.91;5029379;28;102029;-67
2022/11/13 04:18:56;;;;;;;29.50;18.33;;;;;;;3.67;100.00;97123.53;5029034;28;102207;-67
2022/11/13 04:21:53;;;;;;;26.40;18.47;;;;;;;3.61;100.00;97106.69;5029291;28;101977;-67
2022/11/13 04:24:38;;;;;;;48.93;19.63;;;;;;;3.61;100.00;97125.09;5029441;28;101806;-67
2022/11/13 04:27:26;;;;;;;57.60;19.07;;;;;;;3.57;100.00;97115.97;5028983;28;102539;-67
2022/11/13 04:30:12;;;;;;;26.23;19.23;;;;;;;3.65;100.00;97115.03;5032816;28;102408;-67
2022/11/13 04:33:07;;;;;;;25.17;17.83;;;;;;;3.64;100.00;97111.56;5028680;28;102183;-67
2022/11/13 04:36:17;;;;;;;29.77;17.83;;;;;;;3.65;100.00;97097.41;5029335;28;102017;-67
2022/11/13 04:39:03;;;;;;;29.50;17.53;;;;;;;3.60;100.00;97097.16;5029236;28;102045;-67
2022/11/13 04:45:34;;;;;;;24.03;17.67;;;;;;;3.72;100.00;97098.28;5029138;28;101792;-67
2022/11/13 04:48:19;;;;;;;41.40;17.53;;;;;;;3.70;100.00;97096.84;5027412;28;102061;-67
2022/11/13 04:51:05;;;;;;;82.60;18.40;;;;;;;3.59;100.00;97102.59;5028332;28;101878;-67
2022/11/13 04:53:59;;;;;;;102.63;20.43;;;;;;;3.63;100.00;97101.22;5028618;28;101656;-67
2022/11/13 04:56:44;;;;;;;86.83;20.83;;;;;;;3.56;100.00;97095.91;5011869;28;101651;-67
2022/11/13 04:59:30;;;;;;;94.93;19.00;;;;;;;3.64;100.00;97097.59;5016024;28;101865;-67
2022/11/13 05:02:56;;;;;;;89.97;19.13;;;;;;;3.66;100.00;97090.34;5028571;28;102093;-67
2022/11/13 05:06:22;;;;;;;161.10;21.87;;;;;;;3.54;100.00;97086.59;5027832;28;102226;-67
2022/11/13 05:09:11;;;;;;;79.57;18.17;;;;;;;3.49;100.00;97089.78;5028501;28;101745;-67
2022/11/13 05:12:18;;;;;;;56.30;16.47;;;;;;;3.49;100.00;97078.47;5030984;27;101833;-67
2022/11/13 05:15:05;;;;;;;32.90;16.97;;;;;;;3.59;100.00;97071.06;5027864;28;102183;-67
2022/11/13 05:17:51;;;;;;;195.33;23.53;;;;;;;3.57;100.00;97070.44;5028763;28;101842;-67
2022/11/13 05:20:36;;;;;;;23.53;16.30;;;;;;;3.65;100.00;97078.22;5028339;28;102037;-67
2022/11/13 05:24:09;;;;;;;98.93;17.77;;;;;;;3.52;100.00;97057.88;5030993;28;102276;-67
2022/11/13 05:26:56;;;;;;;139.80;17.37;;;;;;;3.35;100.00;97060.97;5028580;28;102017;-67
2022/11/13 05:29:42;;;;;;;39.13;16.70;;;;;;;3.45;100.00;97066.72;5027510;28;102197;-67
2022/11/13 05:32:32;;;;;;;97.50;17.47;;;;;;;3.46;100.00;97055.19;5028032;28;102042;-67
2022/11/13 05:35:42;;;;;;;23.77;15.80;;;;;;;3.49;100.00;97062.72;5028074;28;102009;-67
2022/11/13 05:38:28;;;;;;;74.70;16.40;;;;;;;3.54;100.00;97060.28;5027620;28;102204;-67
2022/11/13 05:41:16;;;;;;;48.73;16.27;;;;;;;3.40;100.00;97045.44;5028085;28;101919;-67
2022/11/13 05:44:20;;;;;;;37.03;15.50;;;;;;;3.47;100.00;97043.66;5027709;28;102120;-67
2022/11/13 05:47:06;;;;;;;23.87;15.80;;;;;;;3.49;100.00;97060.06;5033593;28;102250;-67
2022/11/13 05:49:51;;;;;;;118.10;18.37;;;;;;;3.48;100.00;97053.16;5027826;28;102004;-67
2022/11/13 05:52:45;;;;;;;89.47;19.70;;;;;;;3.47;100.00;97048.91;5027499;28;102242;-67
2022/11/13 05:55:31;;;;;;;26.67;14.00;;;;;;;3.48;100.00;97051.38;5027754;28;101821;-67
2022/11/13 05:58:16;;;;;;;25.17;14.80;;;;;;;3.54;100.00;97049.78;5027523;28;103223;-67
2022/11/13 06:01:09;;;;;;;61.40;15.30;;;;;;;3.43;100.00;97026.63;5026624;28;102390;-67
2022/11/13 06:04:31;;;;;;;14.67;13.17;;;;;;;3.54;100.00;97044.50;5027714;28;101725;-67
2022/11/13 06:07:16;;;;;;;78.83;15.20;;;;;;;3.35;100.00;97026.78;5027663;28;102062;-67
2022/11/13 06:10:02;;;;;;;23.17;14.27;;;;;;;3.29;100.00;97012.56;5027151;28;102218;-67
2022/11/13 06:13:02;;;;;;;62.33;15.43;;;;;;;3.28;100.00;97007.53;5031362;28;101634;-67
2022/11/13 06:15:48;;;;;;;45.87;14.13;;;;;;;3.20;100.00;96999.75;5026713;28;102338;-67
2022/11/13 06:18:35;;;;;;;49.50;13.80;;;;;;;3.09;100.00;97002.91;5030839;28;101710;-67
2022/11/13 06:21:25;;;;;;;95.83;15.63;;;;;;;3.02;100.00;96996.78;5030906;28;101657;-67
2022/11/13 06:24:13;;;;;;;64.40;13.63;;;;;;;3.01;100.00;97006.47;5030108;28;102167;-67
2022/11/13 06:26:58;;;;;;;37.43;13.43;;;;;;;3.06;100.00;96995.41;5030903;28;101713;-67
2022/11/13 06:29:45;;;;;;;24.73;12.90;;;;;;;3.06;100.00;97000.66;5030478;28;103713;-67
2022/11/13 06:32:36;;;;;;;36.10;14.07;;;;;;;3.23;100.00;97002.81;5030305;28;102214;-67
2022/11/13 06:35:25;;;;;;;21.47;13.37;;;;;;;3.26;100.00;96993.75;5030097;28;101762;-67
2022/11/13 06:38:10;;;;;;;69.03;14.60;;;;;;;3.16;100.00;96977.50;5033619;28;102038;-67
2022/11/13 06:40:57;;;;;;;30.47;13.17;;;;;;;3.01;100.00;96969.69;5030257;28;101782;-67
2022/11/13 06:43:51;;;;;;;20.80;12.70;;;;;;;2.87;100.00;96967.13;5028812;28;102041;-67
2022/11/13 06:46:52;;;;;;;36.37;12.57;;;;;;;2.82;100.00;96956.38;5028494;28;102383;-67
2022/11/13 06:49:38;;;;;;;64.00;13.97;;;;;;;2.79;100.00;96970.69;4967738;28;102071;-67
2022/11/13 06:52:27;;;;;;;123.27;13.57;;;;;;;2.65;100.00;96962.88;4968718;28;101762;-67
2022/11/13 06:55:13;;;;;;;45.03;11.33;;;;;;;2.46;100.00;96963.50;4967087;28;102233;-67
2022/11/13 06:57:58;;;;;;;49.83;12.83;;;;;;;2.67;100.00;96984.53;4965311;28;101852;-67
2022/11/13 07:00:44;;;;;;;12.97;11.47;;;;;;;2.83;100.00;96997.41;4967640;28;102211;-67
2022/11/13 07:03:44;;;;;;;23.30;11.80;;;;;;;2.90;100.00;96978.06;4967887;28;102221;-67
2022/11/13 07:06:56;;;;;;;29.67;11.70;;;;;;;2.95;100.00;96964.41;4965667;28;102056;-67
2022/11/13 07:09:43;;;;;;;40.40;12.00;;;;;;;3.03;100.00;96975.59;4967419;28;102212;-67
2022/11/13 07:12:40;;;;;;;18.93;13.00;;;;;;;3.24;100.00;97001.84;4966722;28;102354;-67
2022/11/13 07:15:26;;;;;;;18.03;12.63;;;;;;;3.37;100.00;96980.91;4952940;28;102198;-66
2022/11/13 07:18:12;;;;;;;13.33;11.97;;;;;;;3.46;100.00;97005.22;4944292;28;102630;-66
2022/11/13 07:20:58;;;;;;;14.53;11.73;;;;;;;3.45;100.00;96995.72;4963850;28;103559;-66
2022/11/13 07:23:54;;;;;;;16.13;10.83;;;;;;;3.42;100.00;96989.03;4964420;28;102066;-66
2022/11/13 07:26:42;;;;;;;47.80;11.53;;;;;;;3.41;100.00;96994.47;4978208;28;102294;-67
2022/11/13 07:29:27;;;;;;;52.10;10.63;;;;;;;3.27;100.00;96974.38;5014409;28;101752;-67
2022/11/13 07:32:29;;;;;;;19.83;10.03;;;;;;;3.05;100.00;96972.75;5025929;28;102321;-67
2022/11/13 07:35:30;;;;;;;76.27;11.17;;;;;;;2.91;100.00;96973.66;5017257;28;101707;-67
2022/11/13 07:38:16;;;;;;;10.37;9.00;;;;;;;2.95;100.00;96964.41;5026271;28;102108;-67
2022/11/13 07:41:02;;;;;;;36.27;10.13;;;;;;;3.16;100.00;96964.38;5026543;28;102244;-67
2022/11/13 07:43:54;;;;;;;19.10;10.00;;;;;;;3.23;100.00;96947.63;5006222;28;101656;-66
2022/11/13 07:46:40;;;;;;;11.80;10.63;;;;;;;3.34;100.00;96956.81;5007773;28;102171;-67
2022/11/13 07:49:25;;;;;;;22.97;10.03;;;;;;;3.33;100.00;96957.84;5025179;28;102189;-67
2022/11/13 07:52:33;;;;;;;18.47;9.73;;;;;;;3.14;100.00;96958.47;5025744;28;101772;-67
2022/11/13 07:55:19;;;;;;;9.23;8.27;;;;;;;3.06;100.00;96967.31;5009558;28;102078;-67
2022/11/13 07:58:05;;;;;;;12.83;9.07;;;;;;;3.27;100.00;96969.91;5015439;28;101638;-67
2022/11/13 08:00:53;;;;;;;19.93;10.27;;;;;;;3.04;100.00;96950.09;5026892;28;102277;-66
2022/11/13 08:03:40;;;;;;;23.37;9.30;;;;;;;2.95;100.00;96948.63;5025634;28;101848;-67
2022/11/13 08:06:37;;;;;;;18.50;8.53;;;;;;;3.07;100.00;96944.47;5026835;28;102202;-67
2022/11/13 08:09:23;;;;;;;20.33;9.10;;;;;;;3.10;100.00;96949.34;5026360;28;102073;-67
2022/11/13 08:12:15;;;;;;;34.50;10.63;;;;;;;3.25;100.00;96950.91;5028668;27;102205;-67
2022/11/13 08:15:01;;;;;;;28.63;12.20;;;;;;;3.41;100.00;96953.25;5025587;28;102334;-67
2022/11/13 08:17:53;;;;;;;68.17;13.70;;;;;;;3.25;100.00;96957.97;5014179;28;102346;-67
2022/11/13 08:20:39;;;;;;;12.30;10.17;;;;;;;3.58;100.00;96959.00;5020274;28;101763;-67
2022/11/13 08:24:07;;;;;;;62.50;12.07;;;;;;;3.49;100.00;96949.66;5027563;28;102022;-67
2022/11/13 08:26:53;;;;;;;99.70;11.10;;;;;;;3.75;100.00;96949.78;5008666;28;102214;-64
2022/11/13 08:29:38;;;;;;;11.30;10.17;;;;;;;3.99;100.00;96947.47;5015393;28;102065;-65
2022/11/13 08:32:26;;;;;;;17.07;10.97;;;;;;;4.13;100.00;96951.81;5028998;28;102064;-65
2022/11/13 08:38:55;;;;;;;38.43;11.90;;;;;;;3.52;100.00;96951.88;5028764;28;101716;-65
2022/11/13 08:45:22;;;;;;;32.00;11.57;;;;;;;3.65;100.00;96944.09;5023887;28;102106;-65
2022/11/13 08:48:07;;;;;;;14.20;11.10;;;;;;;4.01;100.00;96952.56;5028434;28;102098;-65
2022/11/13 08:50:54;;;;;;;12.30;11.00;;;;;;;4.09;100.00;96961.09;5028504;28;102335;-65
2022/11/13 08:54:26;;;;;;;20.20;11.00;;;;;;;4.18;100.00;96951.22;5028581;28;101869;-65
2022/11/13 08:57:13;;;;;;;18.73;11.50;;;;;;;4.32;100.00;96955.53;5028229;28;102092;-65
2022/11/13 08:59:59;;;;;;;19.40;10.50;;;;;;;4.19;100.00;96950.19;5027827;28;102332;-65
2022/11/13 09:02:54;;;;;;;15.23;11.13;;;;;;;4.07;100.00;96933.34;5028588;28;101840;-65
2022/11/13 09:06:06;;;;;;;16.23;11.40;;;;;;;4.00;100.00;96938.59;5028400;28;102037;-65
2022/11/13 09:08:51;;;;;;;11.80;10.60;;;;;;;4.44;100.00;96943.41;5027525;28;102284;-65
2022/11/13 09:15:20;;;;;;;12.43;11.17;;;;;;;4.54;100.00;96941.19;5027714;28;102182;-65
2022/11/13 09:18:06;;;;;;;12.67;11.37;;;;;;;4.76;100.00;96943.44;5028126;28;101709;-65
2022/11/13 09:20:52;;;;;;;28.70;12.33;;;;;;;4.49;100.00;96936.53;5028154;28;102060;-65
2022/11/13 09:27:19;;;;;;;14.83;10.23;;;;;;;4.54;100.00;96933.31;5028336;28;101934;-65
2022/11/13 09:30:06;;;;;;;11.70;10.50;;;;;;;4.77;100.00;96928.47;5027860;28;102243;-65
2022/11/13 09:33:37;;;;;;;33.13;11.20;;;;;;;4.54;100.00;96922.75;5027749;28;101736;-65
2022/11/13 09:36:26;;;;;;;11.10;9.90;;;;;;;4.73;100.00;96919.34;5027459;28;101814;-65
2022/11/13 09:39:12;;;;;;;21.50;9.27;;;;;;;4.68;100.00;96909.41;5017481;28;101807;-65
2022/11/13 09:45:41;;;;;;;11.80;10.10;;;;;;;4.91;100.00;96914.31;5028292;28;101984;-65
2022/11/13 09:48:32;;;;;;;10.83;9.83;;;;;;;5.01;100.00;96909.41;5027357;28;102223;-65
2022/11/13 09:51:21;;;;;;;11.63;10.53;;;;;;;5.34;100.00;96905.75;5008759;28;101680;-65
2022/11/13 09:54:16;;;;;;;11.30;10.10;;;;;;;5.30;100.00;96891.34;5025130;28;102057;-65
2022/11/13 09:57:15;;;;;;;10.77;9.73;;;;;;;5.35;100.00;96882.84;5026473;28;102261;-65
2022/11/13 10:00:03;;;;;;;9.57;8.57;;;;;;;5.12;100.00;96879.84;5028721;28;101727;-65
2022/11/13 10:03:23;;;;;;;11.27;9.23;;;;;;;4.91;100.00;96883.47;5028483;28;102084;-65
2022/11/13 10:06:23;;;;;;;9.20;8.30;;;;;;;4.91;100.00;96896.66;5031789;28;102222;-65
2022/11/13 10:09:22;;;;;;;10.67;9.67;;;;;;;5.13;100.00;96882.25;5012894;28;102113;-65
2022/11/13 10:12:22;;;;;;;9.73;8.83;;;;;;;5.08;100.00;96879.41;5030433;28;102216;-65
2022/11/13 10:15:11;;;;;;;10.03;8.73;;;;;;;4.72;100.00;96863.22;5028247;28;101667;-65
2022/11/13 10:18:03;;;;;;;14.33;9.50;;;;;;;4.81;100.00;96858.56;5028383;28;102139;-65
2022/11/13 10:20:53;;;;;;;15.93;10.33;;;;;;;4.95;100.00;96868.06;5027782;28;102249;-65
2022/11/13 10:24:04;;;;;;;11.90;10.70;;;;;;;4.95;100.00;96858.34;5027112;28;101661;-65
2022/11/13 10:26:53;;;;;;;10.73;9.63;;;;;;;4.90;100.00;96844.16;5026765;28;102026;-65
2022/11/13 10:29:39;;;;;;;12.63;10.37;;;;;;;5.18;100.00;96853.44;5027661;28;102240;-65
2022/11/13 10:32:33;;;;;;;11.20;9.50;;;;;;;5.18;100.00;96842.91;5030550;28;101950;-65
2022/11/13 10:39:03;;;;;;;11.50;10.17;;;;;;;5.24;100.00;96818.34;5026368;28;101985;-65
2022/11/13 10:41:56;;;;;;;11.27;10.17;;;;;;;5.61;100.00;96820.28;5027065;28;102022;-65
2022/11/13 10:44:52;;;;;;;10.63;9.63;;;;;;;5.92;100.00;96809.00;5026591;28;102236;-65
2022/11/13 10:47:45;;;;;;;11.00;9.90;;;;;;;5.93;100.00;96813.25;5027576;28;101973;-65
2022/11/13 10:50:33;;;;;;;10.90;9.90;;;;;;;6.15;100.00;96823.28;5027983;28;102106;-65
2022/11/13 10:53:40;;;;;;;10.00;9.10;;;;;;;6.43;100.00;96823.72;5027070;28;102200;-65
2022/11/13 10:56:28;;;;;;;10.57;8.87;;;;;;;5.91;100.00;96802.94;5031167;28;101765;-65
2022/11/13 10:59:18;;;;;;;9.50;8.60;;;;;;;6.02;100.00;96799.63;5010815;28;102237;-65
2022/11/13 11:02:17;;;;;;;9.83;8.83;;;;;;;5.76;100.00;96806.81;5027908;28;101865;-65
2022/11/13 11:05:41;;;;;;;10.97;9.97;;;;;;;5.63;100.00;96805.03;5027346;28;102251;-65
2022/11/13 11:08:30;;;;;;;10.20;9.13;;;;;;;5.46;100.00;96782.00;5025855;28;102259;-65
2022/11/13 11:14:27;;;;;;;8.57;7.67;;;;;;;5.70;100.00;96783.91;5030999;28;101710;-65
2022/11/13 11:17:15;;;;;;;9.20;8.40;;;;;;;6.09;100.00;96783.72;5026509;28;102198;-65
2022/11/13 11:20:06;;;;;;;8.33;7.63;;;;;;;6.38;100.00;96768.06;5027513;28;101878;-65
2022/11/13 11:23:02;;;;;;;8.40;7.60;;;;;;;6.44;100.00;96779.63;5030337;28;101772;-65
2022/11/13 11:25:53;;;;;;;9.37;8.47;;;;;;;6.51;100.00;96770.63;5027440;28;101853;-65
2022/11/13 11:28:44;;;;;;;8.37;7.57;;;;;;;6.43;100.00;96764.81;5027203;28;102020;-65
2022/11/13 11:31:40;;;;;;;7.20;6.60;;;;;;;6.97;100.00;96771.03;5026862;28;102237;-65
2022/11/13 11:34:32;;;;;;;7.07;6.47;;;;;;;7.04;100.00;96768.31;5027539;28;102019;-65
2022/11/13 11:37:20;;;;;;;7.27;6.67;;;;;;;6.99;100.00;96752.31;5026891;28;102115;-65
2022/11/13 11:40:16;;;;;;;7.03;6.43;;;;;;;6.97;100.00;96759.63;5026649;28;102243;-65
2022/11/13 11:43:14;;;;;;;7.77;7.17;;;;;;;6.96;100.00;96760.66;5026951;28;102154;-65
2022/11/13 11:46:00;;;;;;;7.27;6.67;;;;;;;6.86;100.00;96755.06;5028347;28;102028;-65
2022/11/13 11:48:47;;;;;;;7.30;6.70;;;;;;;7.09;100.00;96756.03;5029566;28;102298;-65
2022/11/13 11:52:02;;;;;;;8.03;7.33;;;;;;;7.26;100.00;96759.72;5027026;28;102032;-65
2022/11/13 11:54:54;;;;;;;7.50;6.80;;;;;;;7.60;100.00;96758.31;5006602;28;102198;-65
2022/11/13 11:57:50;;;;;;;7.87;7.17;;;;;;;8.31;100.00;96725.56;5014433;28;101745;-65
2022/11/13 12:00:42;;;;;;;6.77;6.27;;;;;;;8.13;100.00;96706.25;5030551;28;102024;-65
2022/11/13 12:03:57;;;;;;;7.47;6.77;;;;;;;7.92;100.00;96680.28;5029431;28;102190;-65
2022/11/13 12:06:57;;;;;;;8.80;7.90;;;;;;;8.04;100.00;96681.13;5030334;28;101669;-65
2022/11/13 12:09:51;;;;;;;9.97;8.97;;;;;;;8.08;100.00;96677.78;5030272;28;102044;-65
2022/11/13 12:13:19;;;;;;;9.50;8.53;;;;;;;7.74;100.00;96690.94;5029613;28;102237;-65
2022/11/13 12:16:13;;;;;;;8.53;7.70;;;;;;;7.87;100.00;96701.34;5033760;28;101661;-65
2022/11/13 12:19:04;;;;;;;16.90;13.00;;;;;;;8.17;100.00;96699.44;5029411;28;102250;-65
2022/11/13 12:25:38;;;;;;;8.87;8.07;;;;;;;8.06;100.00;96684.34;5009976;28;102020;-65
2022/11/13 12:28:35;;;;;;;9.83;8.90;;;;;;;7.23;100.00;96675.53;5021195;28;102323;-65
2022/11/13 12:31:39;;;;;;;10.47;9.27;;;;;;;6.82;100.00;96664.81;5030133;28;101839;-65
2022/11/13 12:34:31;;;;;;;11.37;10.17;;;;;;;6.95;100.00;96663.88;5010130;28;102022;-65
2022/11/13 12:37:22;;;;;;;11.63;10.43;;;;;;;6.85;100.00;96658.28;5010774;28;102231;-65
2022/11/13 12:40:16;;;;;;;11.50;10.13;;;;;;;6.52;100.00;96652.53;5018030;28;101859;-65
2022/11/13 12:43:34;;;;;;;10.90;9.80;;;;;;;7.00;100.00;96664.00;5031305;28;102049;-65
2022/11/13 12:46:20;;;;;;;11.57;10.37;;;;;;;6.70;100.00;96671.06;5031498;28;101764;-65
2022/11/13 12:49:25;;;;;;;14.13;12.37;;;;;;;6.82;100.00;96666.66;5028301;28;102060;-65
2022/11/13 12:53:00;;;;;;;16.17;13.00;;;;;;;6.67;100.00;96660.94;5028272;28;102184;-65
2022/11/13 12:55:58;;;;;;;15.37;12.50;;;;;;;6.94;100.00;96660.44;5028851;28;102006;-65
2022/11/13 12:58:54;;;;;;;21.00;14.87;;;;;;;6.96;100.00;96649.63;5028751;28;102052;-65
2022/11/13 13:02:03;;;;;;;21.33;15.67;;;;;;;7.08;100.00;96635.44;5028215;28;102211;-65
2022/11/13 13:08:44;;;;;;;17.30;14.07;;;;;;;7.84;100.00;96617.06;5028108;27;101956;-65
2022/11/13 13:11:46;;;;;;;16.13;14.43;;;;;;;7.63;100.00;96612.31;5032755;28;101783;-65
2022/11/13 13:14:56;;;;;;;17.33;13.20;;;;;;;7.30;100.00;96611.97;5008555;28;102065;-65
2022/11/13 13:17:42;;;;;;;15.33;12.47;;;;;;;7.43;100.00;96617.06;5013223;28;102204;-65
2022/11/13 13:20:35;;;;;;;13.03;11.63;;;;;;;7.47;100.00;96615.59;5028428;28;101905;-65
2022/11/13 13:23:36;;;;;;;15.27;13.27;;;;;;;7.55;100.00;96617.91;5028465;28;102005;-65
2022/11/13 13:26:24;;;;;;;14.40;12.77;;;;;;;7.65;100.00;96613.72;5028050;28;102219;-65
2022/11/13 13:29:17;;;;;;;13.07;11.13;;;;;;;7.71;100.00;96606.69;5027914;28;101771;-65
2022/11/13 13:32:36;;;;;;;12.77;11.47;;;;;;;7.98;100.00;96599.94;5028245;28;102047;-65
2022/11/13 13:35:55;;;;;;;13.17;11.87;;;;;;;7.97;100.00;96595.69;5030917;28;102221;-65
2022/11/13 13:38:45;;;;;;;12.93;11.17;;;;;;;7.76;100.00;96588.28;5027994;28;102043;-65
2022/11/13 13:42:06;;;;;;;13.27;11.87;;;;;;;8.06;100.00;96573.09;5027359;28;102212;-65
2022/11/13 13:45:11;;;;;;;12.37;11.07;;;;;;;8.67;100.00;96576.91;5026171;28;102123;-66
2022/11/13 13:47:58;;;;;;;12.33;11.10;;;;;;;8.68;100.00;96583.81;5028026;28;102168;-65
2022/11/13 13:50:46;;;;;;;12.70;11.40;;;;;;;8.44;100.00;96571.63;5027323;28;102206;-65